createdAt,value
2023-02-19T00:02:07.952Z,3.55
2023-02-19T00:04:34.575Z,3.45
2023-02-19T00:07:00.963Z,3.10
2023-02-19T00:09:27.633Z,2.70
2023-02-19T00:11:54.157Z,3.28
2023-02-19T00:14:21.544Z,3.38
2023-02-19T00:16:48.915Z,3.72
2023-02-19T00:19:18.797Z,2.63
2023-02-19T00:21:45.354Z,2.97
2023-02-19T00:24:13.501Z,2.45
2023-02-19T00:26:40.863Z,2.38
2023-02-19T00:29:09.285Z,2.70
2023-02-19T00:31:36.435Z,2.67
2023-02-19T00:34:05.292Z,2.15
2023-02-19T00:36:35.837Z,2.20
2023-02-19T00:39:02.388Z,2.15
2023-02-19T00:41:30.498Z,2.15
2023-02-19T00:44:03.437Z,2.53
2023-02-19T00:46:31.306Z,2.05
2023-02-19T00:48:58.601Z,2.60
2023-02-19T00:51:28.496Z,2.47
2023-02-19T00:53:55.216Z,3.05
2023-02-19T00:56:22.176Z,2.87
2023-02-19T00:58:48.983Z,3.10
2023-02-19T01:01:16.323Z,4.25
2023-02-19T01:03:42.932Z,2.45
2023-02-19T01:06:11.281Z,2.75
2023-02-19T01:08:38.209Z,2.70
2023-02-19T01:11:06.079Z,2.92
2023-02-19T01:13:33.525Z,3.20
2023-02-19T01:16:27.553Z,3.05
2023-02-19T01:18:54.834Z,3.47
2023-02-19T01:21:23.946Z,3.30
2023-02-19T01:23:51.924Z,2.90
2023-02-19T01:26:21.297Z,2.50
2023-02-19T01:28:48.437Z,2.22
2023-02-19T01:31:20.757Z,2.88
2023-02-19T01:33:49.717Z,2.57
2023-02-19T01:36:16.243Z,3.13
2023-02-19T01:38:43.057Z,3.67
2023-02-19T01:41:13.512Z,3.03
2023-02-19T01:44:00.742Z,2.88
2023-02-19T01:46:38.214Z,3.40
2023-02-19T01:49:14.111Z,2.88
2023-02-19T01:51:49.224Z,2.28
2023-02-19T01:54:20.973Z,3.15
2023-02-19T01:56:49.147Z,3.20
2023-02-19T01:59:16.737Z,2.67
2023-02-19T02:01:43.215Z,3.35
2023-02-19T02:04:12.112Z,2.70
2023-02-19T02:06:45.403Z,2.70
2023-02-19T02:09:30.836Z,2.60
2023-02-19T02:11:57.280Z,1.80
2023-02-19T02:14:27.719Z,2.22
2023-02-19T02:17:17.733Z,2.20
2023-02-19T02:20:15.018Z,2.13
2023-02-19T02:22:50.673Z,1.92
2023-02-19T02:25:51.890Z,1.97
2023-02-19T02:28:21.035Z,1.95
2023-02-19T02:30:55.529Z,1.35
2023-02-19T02:33:47.690Z,1.83
2023-02-19T02:36:18.542Z,1.25
2023-02-19T02:38:47.120Z,1.10
2023-02-19T02:41:15.389Z,1.30
2023-02-19T02:43:42.327Z,1.00
2023-02-19T02:46:16.691Z,1.08
2023-02-19T02:48:53.833Z,1.45
2023-02-19T02:51:30.812Z,0.97
2023-02-19T02:54:22.512Z,1.00
2023-02-19T02:56:50.168Z,1.35
2023-02-19T02:59:21.388Z,1.15
2023-02-19T03:02:12.573Z,0.88
2023-02-19T03:05:27.777Z,1.03
2023-02-19T03:08:06.257Z,1.17
2023-02-19T03:10:44.629Z,1.63
2023-02-19T03:13:40.857Z,1.80
2023-02-19T03:16:41.694Z,1.35
2023-02-19T03:19:19.618Z,1.70
2023-02-19T03:21:49.800Z,1.13
2023-02-19T03:24:38.452Z,1.27
2023-02-19T03:27:05.295Z,1.38
2023-02-19T03:29:35.596Z,1.83
2023-02-19T03:32:08.291Z,1.03
2023-02-19T03:34:41.579Z,1.40
2023-02-19T03:37:18.837Z,1.83
2023-02-19T03:39:45.609Z,2.00
2023-02-19T03:42:12.018Z,2.20
2023-02-19T03:44:50.808Z,1.60
2023-02-19T03:47:20.067Z,1.38
2023-02-19T03:49:51.601Z,1.50
2023-02-19T03:52:37.454Z,1.90
2023-02-19T03:55:26.260Z,1.40
2023-02-19T03:58:04.047Z,1.03
2023-02-19T04:00:38.286Z,1.63
2023-02-19T04:03:23.289Z,1.50
2023-02-19T04:05:55.981Z,1.65
2023-02-19T04:08:24.243Z,1.63
2023-02-19T04:10:53.359Z,1.63
2023-02-19T04:13:30.405Z,1.40
2023-02-19T04:16:02.422Z,1.73
2023-02-19T04:18:33.847Z,1.85
2023-02-19T04:21:03.307Z,1.48
2023-02-19T04:23:33.467Z,2.00
2023-02-19T04:26:12.430Z,1.58
2023-02-19T04:28:42.147Z,1.73
2023-02-19T04:31:09.543Z,1.63
2023-02-19T04:33:37.074Z,1.27
2023-02-19T04:36:04.682Z,1.53
2023-02-19T04:38:31.283Z,1.45
2023-02-19T04:40:57.827Z,1.90
2023-02-19T04:43:24.330Z,1.60
2023-02-19T04:45:50.842Z,1.27
2023-02-19T04:48:17.389Z,1.57
2023-02-19T04:50:43.886Z,1.33
2023-02-19T04:53:10.492Z,1.42
2023-02-19T04:55:38.594Z,1.27
2023-02-19T04:58:05.557Z,1.95
2023-02-19T05:00:33.866Z,1.00
2023-02-19T05:03:00.967Z,1.50
2023-02-19T05:05:27.919Z,1.13
2023-02-19T05:07:54.535Z,1.20
2023-02-19T05:10:21.030Z,1.15
2023-02-19T05:12:47.610Z,2.63
2023-02-19T05:15:14.080Z,1.10
2023-02-19T05:17:40.639Z,1.27
2023-02-19T05:20:07.766Z,1.25
2023-02-19T05:22:34.348Z,1.25
2023-02-19T05:25:00.819Z,1.10
2023-02-19T05:27:27.358Z,0.98
2023-02-19T05:29:53.794Z,1.00
2023-02-19T05:32:20.300Z,1.58
2023-02-19T05:34:46.725Z,0.77
2023-02-19T05:37:13.262Z,1.50
2023-02-19T05:39:39.729Z,1.63
2023-02-19T05:42:06.358Z,1.88
2023-02-19T05:44:32.777Z,1.25
2023-02-19T05:46:59.230Z,1.05
2023-02-19T05:49:26.841Z,1.30
2023-02-19T05:51:53.386Z,1.35
2023-02-19T05:54:19.874Z,1.20
2023-02-19T05:56:46.407Z,1.45
2023-02-19T05:59:21.597Z,1.48
2023-02-19T06:01:49.653Z,1.20
2023-02-19T06:04:17.188Z,1.00
2023-02-19T06:06:43.759Z,1.52
2023-02-19T06:09:10.553Z,1.60
2023-02-19T06:11:38.243Z,1.35
2023-02-19T06:14:05.479Z,2.20
2023-02-19T06:16:33.694Z,1.80
2023-02-19T06:19:03.956Z,1.20
2023-02-19T06:21:30.696Z,2.13
2023-02-19T06:23:57.127Z,1.65
2023-02-19T06:26:24.822Z,1.30
2023-02-19T06:28:53.055Z,1.88
2023-02-19T06:31:21.292Z,1.73
2023-02-19T06:33:48.218Z,1.33
2023-02-19T06:36:17.046Z,1.23
2023-02-19T06:38:44.088Z,1.50
2023-02-19T06:41:12.524Z,1.52
2023-02-19T06:43:39.275Z,1.70
2023-02-19T06:46:06.941Z,1.17
2023-02-19T06:48:34.069Z,1.35
2023-02-19T06:51:00.806Z,1.60
2023-02-19T06:53:27.634Z,1.95
2023-02-19T06:56:01.340Z,1.67
2023-02-19T06:58:27.917Z,1.55
2023-02-19T07:00:55.118Z,1.67
2023-02-19T07:03:21.857Z,2.20
2023-02-19T07:05:49.317Z,2.30
2023-02-19T07:08:17.273Z,2.30
2023-02-19T07:10:44.802Z,1.90
2023-02-19T07:13:11.523Z,1.92
2023-02-19T07:15:38.052Z,2.80
2023-02-19T07:18:07.056Z,2.80
2023-02-19T07:20:33.472Z,2.75
2023-02-19T07:23:00.053Z,2.10
2023-02-19T07:25:27.038Z,2.55
2023-02-19T07:27:53.490Z,2.10
2023-02-19T07:30:20.078Z,2.00
2023-02-19T07:32:46.571Z,2.40
2023-02-19T07:35:13.073Z,1.95
2023-02-19T07:37:41.195Z,2.40
2023-02-19T07:40:09.855Z,2.23
2023-02-19T07:42:36.357Z,2.58
2023-02-19T07:45:03.899Z,2.67
2023-02-19T07:47:30.628Z,3.13
2023-02-19T07:49:57.232Z,2.50
2023-02-19T07:52:23.813Z,3.00
2023-02-19T07:54:50.406Z,3.05
2023-02-19T07:57:16.917Z,4.03
2023-02-19T07:59:43.649Z,2.58
2023-02-19T08:02:39.296Z,3.72
2023-02-19T08:05:06.923Z,4.60
2023-02-19T08:07:37.130Z,3.28
2023-02-19T08:10:22.959Z,3.47
2023-02-19T08:13:16.519Z,3.80
2023-02-19T08:15:43.383Z,3.78
2023-02-19T08:18:10.817Z,3.93
2023-02-19T08:20:37.365Z,3.85
2023-02-19T08:23:03.979Z,3.33
2023-02-19T08:25:31.206Z,4.63
2023-02-19T08:27:57.866Z,3.95
2023-02-19T08:30:24.534Z,4.07
2023-02-19T08:32:50.960Z,4.45
2023-02-19T08:35:17.651Z,2.67
2023-02-19T08:37:44.193Z,3.28
2023-02-19T08:40:11.716Z,3.70
2023-02-19T08:42:38.242Z,3.20
2023-02-19T08:45:05.633Z,4.00
2023-02-19T08:47:35.473Z,4.10
2023-02-19T08:50:02.405Z,4.78
2023-02-19T08:52:28.876Z,4.47
2023-02-19T08:54:55.302Z,4.53
2023-02-19T08:57:22.181Z,4.32
2023-02-19T08:59:48.677Z,4.50
2023-02-19T09:02:15.121Z,4.70
2023-02-19T09:04:41.549Z,4.93
2023-02-19T09:07:09.567Z,4.67
2023-02-19T09:09:39.749Z,4.57
2023-02-19T09:12:10.862Z,5.53
2023-02-19T09:14:38.210Z,4.78
2023-02-19T09:17:06.534Z,4.85
2023-02-19T09:19:33.710Z,3.77
2023-02-19T09:22:00.179Z,4.85
2023-02-19T09:24:26.906Z,4.35
2023-02-19T09:26:54.530Z,4.57
2023-02-19T09:29:26.034Z,5.38
2023-02-19T09:31:59.522Z,6.07
2023-02-19T09:34:27.832Z,3.65
2023-02-19T09:36:54.856Z,3.97
2023-02-19T09:39:21.951Z,2.90
2023-02-19T09:42:15.349Z,3.30
2023-02-19T09:44:45.372Z,2.70
2023-02-19T09:47:27.768Z,1.85
2023-02-19T09:50:04.436Z,2.28
2023-02-19T09:52:30.808Z,1.60
2023-02-19T09:55:13.081Z,1.67
2023-02-19T09:57:44.871Z,1.87
2023-02-19T10:00:11.510Z,1.52
2023-02-19T10:02:38.735Z,1.10
2023-02-19T10:05:16.295Z,1.10
2023-02-19T10:07:49.345Z,1.02
2023-02-19T10:10:15.752Z,0.90
2023-02-19T10:12:52.361Z,1.10
2023-02-19T10:15:48.707Z,0.63
2023-02-19T10:18:20.777Z,0.35
2023-02-19T10:20:48.386Z,0.32
2023-02-19T10:23:16.081Z,0.30
2023-02-19T10:26:00.127Z,0.30
2023-02-19T10:28:33.533Z,0.70
2023-02-19T10:31:03.291Z,0.30
2023-02-19T10:33:30.148Z,0.30
2023-02-19T10:35:56.515Z,0.30
2023-02-19T10:38:46.715Z,0.20
2023-02-19T10:41:22.178Z,0.30
2023-02-19T10:44:06.901Z,0.20
2023-02-19T10:46:36.968Z,0.28
2023-02-19T10:49:37.735Z,0.30
2023-02-19T10:52:30.603Z,0.50
2023-02-19T10:55:14.442Z,0.20
2023-02-19T10:57:41.030Z,0.25
2023-02-19T11:00:16.428Z,0.70
2023-02-19T11:02:44.118Z,0.30
2023-02-19T11:05:15.001Z,0.30
2023-02-19T11:07:46.268Z,0.38
2023-02-19T11:10:31.513Z,0.30
2023-02-19T11:13:01.505Z,0.50
2023-02-19T11:15:30.337Z,0.47
2023-02-19T11:18:12.077Z,0.32
2023-02-19T11:20:57.599Z,0.45
2023-02-19T11:23:32.818Z,0.47
2023-02-19T11:26:03.541Z,0.80
2023-02-19T11:28:36.074Z,0.40
2023-02-19T11:31:18.939Z,0.55
2023-02-19T11:34:14.508Z,0.40
2023-02-19T11:36:41.984Z,0.32
2023-02-19T11:39:17.170Z,0.20
2023-02-19T11:41:53.644Z,0.53
2023-02-19T11:44:50.254Z,0.30
2023-02-19T11:47:35.229Z,0.10
2023-02-19T11:50:23.611Z,0.20
2023-02-19T11:53:27.902Z,0.32
2023-02-19T11:56:13.262Z,0.30
2023-02-19T11:58:55.333Z,0.30
2023-02-19T12:01:38.497Z,0.30
2023-02-19T12:04:37.629Z,0.30
2023-02-19T12:07:04.216Z,0.32
2023-02-19T12:09:41.090Z,0.20
2023-02-19T12:12:16.667Z,0.20
2023-02-19T12:15:15.309Z,0.30
2023-02-19T12:17:47.581Z,0.30
2023-02-19T12:20:26.039Z,0.25
2023-02-19T12:23:17.355Z,0.30
2023-02-19T12:25:52.443Z,0.30
2023-02-19T12:28:37.012Z,0.25
2023-02-19T12:31:36.552Z,0.40
2023-02-19T12:34:42.608Z,0.30
2023-02-19T12:37:26.013Z,0.30
2023-02-19T12:40:13.044Z,0.38
2023-02-19T12:42:56.885Z,0.28
2023-02-19T12:46:00.303Z,0.17
2023-02-19T12:48:43.003Z,0.10
2023-02-19T12:51:28.623Z,0.13
2023-02-19T12:54:17.880Z,0.30
2023-02-19T12:56:52.370Z,0.15
2023-02-19T12:59:29.930Z,0.10
2023-02-19T13:02:23.727Z,0.20
2023-02-19T13:04:58.395Z,0.30
2023-02-19T13:07:44.163Z,0.20
2023-02-19T13:10:10.553Z,0.20
2023-02-19T13:12:41.513Z,0.35
2023-02-19T13:15:18.429Z,0.20
2023-02-19T13:17:52.587Z,0.10
2023-02-19T13:20:21.655Z,0.20
2023-02-19T13:23:42.196Z,0.22
2023-02-19T13:26:23.518Z,0.30
2023-02-19T13:29:04.626Z,0.22
2023-02-19T13:31:33.887Z,0.20
2023-02-19T13:34:00.546Z,0.20
2023-02-19T13:36:29.048Z,0.28
2023-02-19T13:38:59.525Z,0.20
2023-02-19T13:41:41.267Z,0.30
2023-02-19T13:44:20.512Z,0.20
2023-02-19T13:46:48.558Z,0.50
2023-02-19T13:49:36.401Z,0.20
2023-02-19T13:52:33.148Z,0.30
2023-02-19T13:55:40.752Z,0.50
2023-02-19T13:58:32.944Z,0.20
2023-02-19T14:01:05.450Z,0.30
2023-02-19T14:03:37.800Z,0.20
2023-02-19T14:06:09.631Z,0.22
2023-02-19T14:08:57.123Z,0.30
2023-02-19T14:12:03.562Z,0.40
2023-02-19T14:14:37.278Z,0.30
2023-02-19T14:17:23.754Z,0.70
2023-02-19T14:19:58.554Z,0.20
2023-02-19T14:22:52.008Z,0.45
2023-02-19T14:25:27.757Z,0.20
2023-02-19T14:27:59.711Z,0.20
2023-02-19T14:30:27.322Z,0.25
2023-02-19T14:33:02.778Z,0.20
2023-02-19T14:35:40.410Z,0.20
2023-02-19T14:38:16.658Z,0.20
2023-02-19T14:40:45.891Z,0.10
2023-02-19T14:43:16.605Z,0.20
2023-02-19T14:45:47.334Z,0.20
2023-02-19T14:48:38.395Z,0.10
2023-02-19T14:51:13.683Z,0.20
2023-02-19T14:53:44.539Z,0.10
2023-02-19T14:56:24.978Z,0.10
2023-02-19T14:59:13.187Z,0.08
2023-02-19T15:01:39.791Z,0.00
2023-02-19T15:04:06.857Z,0.20
2023-02-19T15:06:35.851Z,0.57
2023-02-19T15:09:07.218Z,0.88
2023-02-19T15:11:35.118Z,1.02
2023-02-19T15:14:08.193Z,0.32
2023-02-19T15:16:36.344Z,0.10
2023-02-19T15:19:07.904Z,0.10
2023-02-19T15:21:38.825Z,0.10
2023-02-19T15:24:06.968Z,0.10
2023-02-19T15:26:43.402Z,0.10
2023-02-19T15:29:12.502Z,0.10
2023-02-19T15:31:54.732Z,0.32
2023-02-19T15:34:25.422Z,0.15
2023-02-19T15:36:56.810Z,0.20
2023-02-19T15:39:26.138Z,0.20
2023-02-19T15:42:00.211Z,0.20
2023-02-19T15:44:45.252Z,0.30
2023-02-19T15:47:29.689Z,0.30
2023-02-19T15:50:04.338Z,0.20
2023-02-19T15:52:39.117Z,0.10
2023-02-19T15:55:24.033Z,0.20
2023-02-19T15:58:04.573Z,0.20
2023-02-19T16:00:42.064Z,0.20
2023-02-19T16:03:17.470Z,0.30
2023-02-19T16:05:44.028Z,0.10
2023-02-19T16:08:20.289Z,0.10
2023-02-19T16:10:58.396Z,0.25
2023-02-19T16:13:30.548Z,0.30
2023-02-19T16:16:03.051Z,0.22
2023-02-19T16:18:30.284Z,0.10
2023-02-19T16:20:57.233Z,0.10
2023-02-19T16:23:24.327Z,0.30
2023-02-19T16:26:01.992Z,0.20
2023-02-19T16:28:35.453Z,0.60
2023-02-19T16:31:22.304Z,0.20
2023-02-19T16:33:50.261Z,0.20
2023-02-19T16:36:23.896Z,0.10
2023-02-19T16:39:08.484Z,0.15
2023-02-19T16:41:40.874Z,0.20
2023-02-19T16:44:25.754Z,0.20
2023-02-19T16:46:54.356Z,0.50
2023-02-19T16:49:22.774Z,0.20
2023-02-19T16:51:50.866Z,0.30
2023-02-19T16:54:17.347Z,0.20
2023-02-19T16:56:43.770Z,0.30
2023-02-19T16:59:10.254Z,0.30
2023-02-19T17:01:37.523Z,0.60
2023-02-19T17:04:06.591Z,0.60
2023-02-19T17:06:34.665Z,0.40
2023-02-19T17:09:01.199Z,0.60
2023-02-19T17:11:27.676Z,0.80
2023-02-19T17:13:54.097Z,0.70
2023-02-19T17:16:27.526Z,0.70
2023-02-19T17:18:55.196Z,0.80
2023-02-19T17:21:23.414Z,0.70
2023-02-19T17:23:50.741Z,0.60
2023-02-19T17:26:23.908Z,1.20
2023-02-19T17:28:50.792Z,0.52
2023-02-19T17:31:18.035Z,0.52
2023-02-19T17:33:44.858Z,0.82
2023-02-19T17:36:40.377Z,0.40
2023-02-19T17:39:14.948Z,0.30
2023-02-19T17:41:41.657Z,0.30
2023-02-19T17:44:08.050Z,0.30
2023-02-19T17:46:34.629Z,0.20
2023-02-19T17:49:01.190Z,0.33
2023-02-19T17:51:28.335Z,0.30
2023-02-19T17:53:54.812Z,0.40
2023-02-19T17:56:25.556Z,0.30
2023-02-19T17:58:52.710Z,0.30
2023-02-19T18:01:19.144Z,0.40
2023-02-19T18:03:45.629Z,0.45
2023-02-19T18:06:12.136Z,0.30
2023-02-19T18:08:39.232Z,0.50
2023-02-19T18:11:07.407Z,0.10
2023-02-19T18:13:33.823Z,0.20
2023-02-19T18:16:00.447Z,0.10
2023-02-19T18:18:26.982Z,0.30
2023-02-19T18:20:53.444Z,0.20
2023-02-19T18:23:20.649Z,0.20
2023-02-19T18:25:47.328Z,0.20
2023-02-19T18:28:14.891Z,0.20
2023-02-19T18:30:41.474Z,0.45
2023-02-19T18:33:10.734Z,0.10
2023-02-19T18:35:37.979Z,0.13
2023-02-19T18:38:04.751Z,0.20
2023-02-19T18:40:31.319Z,0.10
2023-02-19T18:42:58.629Z,0.30
2023-02-19T18:45:25.321Z,0.25
2023-02-19T18:47:51.879Z,0.20
2023-02-19T18:50:19.223Z,0.20
2023-02-19T18:52:45.792Z,0.20
2023-02-19T18:55:12.232Z,0.20
2023-02-19T18:57:38.779Z,0.10
2023-02-19T19:00:06.927Z,0.20
2023-02-19T19:02:47.050Z,0.20
2023-02-19T19:05:18.389Z,0.10
2023-02-19T19:07:44.911Z,0.10
2023-02-19T19:10:11.385Z,0.10
2023-02-19T19:12:37.864Z,0.20
2023-02-19T19:15:04.987Z,0.10
2023-02-19T19:17:31.454Z,0.20
2023-02-19T19:19:57.933Z,0.17
2023-02-19T19:22:25.097Z,0.20
2023-02-19T19:24:51.562Z,0.40
2023-02-19T19:27:20.255Z,0.30
2023-02-19T19:29:47.866Z,0.30
2023-02-19T19:32:14.535Z,0.30
2023-02-19T19:34:42.758Z,0.30
2023-02-19T19:37:09.575Z,0.40
2023-02-19T19:39:36.813Z,0.30
2023-02-19T19:42:03.528Z,0.30
2023-02-19T19:44:30.058Z,0.30
2023-02-19T19:46:56.619Z,0.38
2023-02-19T19:49:23.486Z,0.40
2023-02-19T19:51:49.929Z,0.20
2023-02-19T19:54:16.407Z,0.30
2023-02-19T19:56:45.703Z,0.22
2023-02-19T19:59:14.501Z,0.32
2023-02-19T20:02:03.088Z,0.30
2023-02-19T20:04:29.797Z,0.40
2023-02-19T20:06:58.481Z,0.90
2023-02-19T20:09:25.564Z,0.77
2023-02-19T20:11:53.305Z,0.70
2023-02-19T20:14:22.046Z,0.52
2023-02-19T20:16:49.678Z,0.60
2023-02-19T20:19:17.330Z,0.60
2023-02-19T20:21:51.461Z,0.60
2023-02-19T20:24:24.095Z,0.40
2023-02-19T20:26:54.796Z,0.50
2023-02-19T20:29:21.219Z,0.70
2023-02-19T20:31:49.821Z,0.50
2023-02-19T20:34:16.882Z,0.43
2023-02-19T20:36:44.567Z,0.40
2023-02-19T20:39:11.670Z,0.40
2023-02-19T20:41:38.209Z,0.60
2023-02-19T20:44:04.722Z,0.55
2023-02-19T20:46:31.257Z,0.40
2023-02-19T20:48:57.815Z,0.40
2023-02-19T20:51:24.363Z,0.60
2023-02-19T20:53:50.770Z,0.70
2023-02-19T20:56:17.221Z,0.77
2023-02-19T20:58:43.647Z,0.77
2023-02-19T21:01:11.688Z,0.75
2023-02-19T21:03:38.185Z,1.30
2023-02-19T21:06:04.789Z,1.07
2023-02-19T21:08:31.223Z,1.30
2023-02-19T21:10:57.673Z,1.52
2023-02-19T21:13:24.141Z,1.23
2023-02-19T21:15:50.652Z,1.50
2023-02-19T21:18:17.419Z,1.63
2023-02-19T21:20:43.942Z,1.27
2023-02-19T21:23:10.516Z,1.83
2023-02-19T21:25:36.951Z,1.13
2023-02-19T21:28:03.712Z,1.10
2023-02-19T21:30:30.223Z,1.07
2023-02-19T21:32:57.193Z,1.40
2023-02-19T21:35:23.612Z,1.13
2023-02-19T21:37:50.698Z,0.80
2023-02-19T21:40:17.150Z,0.77
2023-02-19T21:42:43.634Z,0.97
2023-02-19T21:45:10.127Z,1.08
2023-02-19T21:47:36.556Z,0.77
2023-02-19T21:50:03.152Z,0.90
2023-02-19T21:52:31.000Z,0.82
2023-02-19T21:54:57.982Z,0.93
2023-02-19T21:57:24.451Z,1.23
2023-02-19T21:59:50.979Z,1.40
2023-02-19T22:02:20.488Z,1.35
2023-02-19T22:04:53.426Z,0.80
2023-02-19T22:07:21.200Z,1.37
2023-02-19T22:09:48.765Z,0.88
2023-02-19T22:12:15.751Z,1.10
2023-02-19T22:14:42.410Z,1.83
2023-02-19T22:17:09.361Z,1.02
2023-02-19T22:19:36.026Z,1.27
2023-02-19T22:22:02.818Z,1.33
2023-02-19T22:24:29.311Z,1.48
2023-02-19T22:26:57.165Z,1.65
2023-02-19T22:29:24.369Z,2.08
2023-02-19T22:31:51.019Z,1.33
2023-02-19T22:34:17.790Z,2.22
2023-02-19T22:36:44.790Z,1.60
2023-02-19T22:39:26.294Z,1.60
2023-02-19T22:41:53.384Z,1.60
2023-02-19T22:44:20.037Z,2.00
2023-02-19T22:46:49.730Z,1.58
2023-02-19T22:49:17.002Z,1.80
2023-02-19T22:51:50.990Z,1.40
2023-02-19T22:54:17.852Z,1.95
2023-02-19T22:56:44.575Z,1.97
2023-02-19T22:59:11.204Z,1.60
2023-02-19T23:01:37.732Z,2.30
2023-02-19T23:04:10.501Z,1.70
2023-02-19T23:06:42.709Z,2.00
2023-02-19T23:09:14.973Z,2.13
2023-02-19T23:11:42.461Z,1.52
2023-02-19T23:14:09.002Z,2.13
2023-02-19T23:16:35.861Z,2.03
2023-02-19T23:19:04.864Z,2.47
2023-02-19T23:21:32.591Z,2.80
2023-02-19T23:23:59.536Z,2.42
2023-02-19T23:26:26.203Z,2.70
2023-02-19T23:28:52.675Z,3.33
2023-02-19T23:31:19.462Z,2.55
2023-02-19T23:33:46.100Z,3.00
2023-02-19T23:36:13.957Z,2.75
2023-02-19T23:38:43.756Z,3.17
2023-02-19T23:41:12.239Z,3.83
2023-02-19T23:43:39.342Z,3.30
2023-02-19T23:46:06.233Z,3.97
2023-02-19T23:48:32.984Z,3.42
2023-02-19T23:50:59.635Z,3.60
2023-02-19T23:53:26.083Z,3.53
2023-02-19T23:55:52.613Z,2.70
2023-02-19T23:58:19.059Z,3.40
